Lake Cuyamaca (79) Station Data

Red Flag Warning: No
Fire Weather Zone: 258
SDGE Region: Mountain Empire
Lat/Lon: 32.997/-116.595

Observations

Time Wind Speed/Gust Temp(F) RH Fuel Moist Fuel Temp(F) Dewpt(F) Tmax(F) Tmin(F) Accum Precip 10-min Precip SL Press(mb)
4/30 12:00am 68 5 G 7 55° 13% - - 63.3° 46.1° - - -
4/29 11:50pm 66 6 G 7 56° 13% - - 63.3° 46.1° - - -
4/29 11:40pm 68 6 G 7 56° 14% - - 63.3° 46.1° - - -
4/29 11:30pm 63 5 G 6 55° 14% - - 63.3° 46.1° - - -
4/29 11:20pm 68 4 G 6 55° 14% - - 63.3° 46.1° - - -
4/29 11:10pm 58 3 G 4 56° 14% - - 63.3° 46.1° - - -
4/29 11:00pm 51 3 G 4 55° 15% - - 63.3° 46.1° - - -
4/29 10:50pm 42 0 G 3 53° 24% - - 17° 63.3° 46.1° - - -
4/29 10:40pm 349 0 G 3 54° 23% - - 17° 63.3° 46.1° - - -
4/29 10:00pm 324 2 G 4 54° 24% - - 18° 63.3° 46.1° - - -
4/29 9:50pm 323 2 G 4 55° 23% - - 18° 63.3° 46.1° - - -
4/29 9:30pm 357 2 G 4 55° 24% - - 19° 63.3° 46.1° - - -
4/29 9:20pm 333 3 G 4 54° 26% - - 20° 63.3° 46.1° - - -
4/29 9:10pm 338 3 G 4 54° 26% - - 20° 63.3° 46.1° - - -
4/29 9:00pm 336 3 G 4 55° 26% - - 20° 63.3° 46.1° - - -
4/29 8:50pm 330 3 G 3 54° 28% - - 22° 63.3° 46.1° - - -
4/29 8:30pm 313 4 G 5 54° 28% - - 22° 63.3° 46.1° - - -
4/29 8:20pm 319 3 G 4 54° 28% - - 21° 63.3° 46.1° - - -
4/29 8:10pm 308 3 G 4 55° 26% - - 20° 63.3° 46.1° - - -
4/29 8:00pm 326 2 G 4 55° 26% - - 20° 63.3° 46.1° - - -
4/29 7:50pm 345 3 G 4 55° 27% - - 21° 63.3° 46.1° - - -
4/29 7:40pm 336 4 G 5 55° 28% - - 22° 63.3° 46.1° - - -
4/29 7:30pm 316 4 G 5 55° 27% - - 22° 63.3° 46.1° - - -
4/29 7:20pm 313 4 G 7 56° 26% - - 22° 63.3° 46.1° - - -
4/29 7:10pm 286 4 G 7 57° 25% - - 22° 63.3° 46.1° - - -
4/29 7:00pm 268 5 G 8 58° 24% - - 22° 63.3° 46.1° - - -
4/29 6:50pm 261 7 G 13 59° 23% - - 22° 63.3° 46.1° - - -
4/29 6:40pm 240 9 G 14 60° 21% - - 20° 63.3° 46.1° - - -
4/29 6:30pm 149 3 G 7 62° 13% - - 11° 63.3° 46.1° - - -
4/29 6:20pm 101 6 G 10 61° 13% - - 10° 63.3° 46.1° - - -
4/29 6:10pm 117 6 G 11 61° 13% - - 10° 63.3° 46.1° - - -
4/29 6:00pm 109 7 G 13 61° 12% - - 63.3° 46.1° - - -
4/29 5:50pm 111 7 G 12 62° 13% - - 11° 63.3° 46.1° - - -
4/29 5:40pm 105 9 G 16 62° 13% - - 10° 63.3° 46.1° - - -
4/29 5:30pm 119 9 G 16 62° 13% - - 10° 63.3° 46.1° - - -
4/29 5:20pm 102 9 G 15 62° 13% - - 10° 63.3° 46.1° - - -
4/29 5:10pm 105 10 G 17 62° 13% - - 10° 63.3° 46.1° - - -
4/29 5:00pm 103 9 G 16 62° 13% - - 10° 63.3° 46.1° - - -
4/29 4:50pm 118 9 G 18 62° 13% - - 11° 63.3° 46.1° - - -
4/29 4:40pm 127 8 G 15 62° 13% - - 12° 63.3° 46.1° - - -
4/29 4:30pm 111 8 G 16 62° 13% - - 11° 63.3° 46.1° - - -
4/29 4:20pm 98 10 G 17 61° 12% - - 62.8° 46.1° - - -
4/29 4:10pm 102 8 G 15 62° 13% - - 11° 62.8° 46.1° - - -
4/29 4:00pm 99 9 G 16 62° 13% - - 10° 62.7° 46.1° - - -
4/29 3:50pm 103 9 G 18 61° 13% - - 11° 62.7° 46.1° - - -
4/29 3:40pm 109 10 G 16 61° 14% - - 11° 62.7° 46.1° - - -
4/29 3:30pm 120 9 G 17 61° 14% - - 12° 62.7° 46.1° - - -
4/29 3:20pm 130 9 G 16 61° 14% - - 12° 61.8° 46.1° - - -
4/29 3:10pm 114 10 G 18 61° 14% - - 11° 61.8° 46.1° - - -
4/29 3:00pm 130 8 G 16 61° 14% - - 12° 61.8° 46.1° - - -
4/29 2:50pm 110 10 G 16 61° 15% - - 12° 61.4° 46.1° - - -
4/29 2:40pm 118 9 G 16 60° 15% - - 12° 61.3° 46.1° - - -
4/29 2:30pm 129 9 G 15 60° 15% - - 12° 61.1° 46.1° - - -
4/29 2:20pm 120 10 G 18 60° 15% - - 13° 61.1° 46.1° - - -
4/29 2:10pm 120 11 G 17 60° 14% - - 11° 61.1° 46.1° - - -
4/29 2:00pm 108 8 G 16 60° 15% - - 13° 61.1° 46.1° - - -
4/29 1:50pm 100 10 G 19 59° 15% - - 12° 61.1° 46.1° - - -
4/29 1:40pm 110 12 G 21 59° 15% - - 11° 59.7° 46.1° - - -
4/29 1:30pm 118 11 G 19 59° 16% - - 12° 59.5° 46.1° - - -
4/29 1:20pm 106 11 G 20 58° 16% - - 12° 59.4° 46.1° - - -
4/29 1:10pm 103 11 G 19 59° 16% - - 13° 59.1° 46.1° - - -
4/29 1:00pm 107 12 G 19 58° 16% - - 12° 58.7° 46.1° - - -
4/29 12:50pm 110 13 G 21 58° 17% - - 13° 58.6° 46.1° - - -
4/29 12:40pm 98 13 G 25 58° 16% - - 11° 58.6° 46.1° - - -
4/29 12:30pm 114 13 G 22 57° 18% - - 13° 57.7° 46.1° - - -
4/29 12:20pm 106 16 G 26 56° 17% - - 12° 57.2° 46.1° - - -
4/29 12:10pm 107 16 G 27 56° 18% - - 13° 57.2° 46.1° - - -
4/29 12:00pm 94 15 G 25 56° 17% - - 12° 57.2° 46.1° - - -
4/29 11:50am 100 16 G 27 56° 17% - - 12° 56.3° 46.1° - - -
4/29 11:40am 104 15 G 26 55° 18% - - 12° 56° 46.1° - - -
4/29 11:30am 107 16 G 26 55° 18% - - 12° 55.2° 46.1° - - -
4/29 11:20am 115 15 G 25 54° 18% - - 12° 55° 46.1° - - -
4/29 11:10am 121 15 G 24 54° 18% - - 12° 54.8° 46.1° - - -
4/29 11:00am 119 16 G 25 53° 17% - - 10° 54.4° 46.1° - - -
4/29 10:50am 108 18 G 27 53° 17% - - 10° 54.1° 46.1° - - -
4/29 10:40am 99 18 G 26 53° 16% - - 54° 46.1° - - -
4/29 10:30am 93 19 G 29 53° 16% - - 53.8° 46.1° - - -
4/29 10:20am 102 18 G 27 53° 17% - - 53.8° 46.1° - - -
4/29 10:10am 102 18 G 29 53° 18% - - 11° 53.8° 46.1° - - -
4/29 10:00am 96 19 G 34 52° 17% - - 53° 46.1° - - -
4/29 9:50am 91 18 G 28 52° 17% - - 53° 46.1° - - -
4/29 9:40am 95 18 G 27 52° 16% - - 53° 46.1° - - -
4/29 9:30am 84 18 G 27 52° 15% - - 52.1° 46.1° - - -
4/29 9:20am 81 18 G 25 51° 15% - - 52.1° 46.1° - - -
4/29 9:10am 89 16 G 24 51° 16% - - 52.1° 46.1° - - -
4/29 9:00am 92 17 G 25 50° 15% - - 52.1° 46.1° - - -
4/29 8:50am 87 18 G 25 50° 16% - - 52.1° 46.1° - - -
4/29 8:40am 86 16 G 23 50° 16% - - 52.1° 46.1° - - -
4/29 8:30am 76 16 G 24 50° 16% - - 52.1° 46.1° - - -
4/29 8:20am 64 15 G 23 50° 15% - - 52.1° 46.1° - - -
4/29 8:10am 51 14 G 23 50° 15% - - 52.1° 46.1° - - -
4/29 8:00am 61 14 G 25 49° 15% - - 52.1° 46.1° - - -
4/29 7:50am 59 16 G 27 49° 15% - - 52.1° 46.1° - - -
4/29 7:40am 59 17 G 26 49° 14% - - 52.1° 46.1° - - -
4/29 7:30am 57 17 G 26 49° 14% - - 52.1° 46.1° - - -
4/29 7:20am 58 16 G 26 48° 15% - - 52.1° 46.1° - - -
4/29 7:10am 59 16 G 26 48° 15% - - 52.1° 46.1° - - -
4/29 7:00am 56 16 G 25 47° 15% - - 52.1° 46.1° - - -
4/29 6:50am 52 17 G 25 47° 16% - - 52.1° 46.1° - - -
4/29 6:40am 53 15 G 23 47° 16% - - 52.1° 46.1° - - -
4/29 6:30am 56 16 G 24 47° 16% - - 52.1° 46.1° - - -
4/29 6:20am 54 16 G 27 47° 17% - - 52.1° 46.1° - - -
4/29 6:10am 55 15 G 23 46° 17% - - 52.1° 46.1° - - -
4/29 6:00am 55 15 G 25 46° 18% - - 52.1° 46.1° - - -
4/29 5:50am 60 15 G 24 46° 18% - - 52.1° 46.1° - - -
4/29 5:40am 59 15 G 22 46° 18% - - 52.1° 46.1° - - -
4/29 5:30am 67 14 G 22 46° 18% - - 52.1° 46.1° - - -
4/29 5:20am 69 14 G 22 47° 18% - - 52.1° 46.3° - - -
4/29 5:10am 70 13 G 21 47° 18% - - 52.1° 46.5° - - -
4/29 5:00am 75 13 G 24 47° 18% - - 52.1° 46.6° - - -
4/29 4:50am 74 13 G 23 47° 18% - - 52.1° 46.7° - - -
4/29 4:40am 77 14 G 21 47° 18% - - 52.1° 46.8° - - -
4/29 4:30am 79 13 G 21 47° 18% - - 52.1° 46.8° - - -
4/29 4:20am 79 14 G 21 48° 17% - - 52.1° 47° - - -
4/29 4:10am 79 15 G 21 47° 18% - - 52.1° 47° - - -
4/29 4:00am 80 16 G 23 47° 19% - - 52.1° 47° - - -
4/29 3:50am 75 15 G 22 47° 19% - - 52.1° 47.2° - - -
4/29 3:40am 74 15 G 24 48° 18% - - 52.1° 47.5° - - -
4/29 3:30am 71 14 G 23 48° 18% - - 52.1° 47.7° - - -
4/29 3:20am 71 15 G 24 48° 18% - - 52.1° 47.7° - - -
4/29 3:10am 76 15 G 23 48° 19% - - 52.1° 47.8° - - -
4/29 3:00am 82 14 G 20 48° 19% - - 52.1° 47.8° - - -
4/29 2:50am 80 16 G 23 48° 19% - - 52.1° 48.2° - - -
4/29 2:40am 79 16 G 24 49° 18% - - 52.1° 48.5° - - -
4/29 2:30am 80 17 G 24 49° 18% - - 52.1° 48.8° - - -
4/29 2:20am 80 17 G 24 49° 18% - - 52.1° 48.9° - - -
4/29 2:10am 77 13 G 19 50° 17% - - 52.1° 49.4° - - -
4/29 2:00am 74 13 G 22 50° 16% - - 52.1° 49.8° - - -
4/29 1:50am 74 12 G 19 50° 16% - - 52.1° 50° - - -
4/29 1:40am 75 12 G 20 51° 16% - - 52.1° 50.1° - - -
4/29 1:30am 77 11 G 16 51° 16% - - 52.1° 50.2° - - -
4/29 1:20am 82 11 G 21 51° 16% - - 52.1° 50.2° - - -
4/29 1:10am 81 11 G 16 51° 16% - - 52.1° 50.6° - - -
4/29 1:00am 75 11 G 16 51° 17% - - 52.1° 50.6° - - -
4/29 12:50am 73 10 G 16 51° 17% - - 52.1° 50.7° - - -
4/29 12:40am 74 11 G 17 51° 19% - - 10° 52.1° 50.7° - - -
4/29 12:30am 72 10 G 15 51° 21% - - 13° 52.1° 50.7° - - -
4/29 12:20am 78 10 G 17 51° 23% - - 15° 52.1° 50.7° - - -
4/29 12:10am 77 10 G 15 52° 21% - - 13° 52.1° 51° - - -
4/29 12:00am 68 11 G 16 52° 20% - - 12° 63.2° 48.5° - - -
4/28 11:50pm 68 12 G 15 52° 20% - - 12° 63.2° 48.5° - - -
4/28 11:40pm 64 11 G 15 52° 20% - - 12° 63.2° 48.5° - - -
4/28 11:30pm 66 10 G 14 52° 21% - - 14° 63.2° 48.5° - - -
4/28 11:20pm 68 10 G 14 52° 23% - - 16° 63.2° 48.5° - - -
4/28 11:10pm 67 9 G 13 52° 27% - - 19° 63.2° 48.5° - - -
4/28 11:00pm 70 9 G 12 53° 40% - - 29° 63.2° 48.5° - - -
4/28 10:50pm 62 9 G 11 53° 50% - - 35° 63.2° 48.5° - - -
4/28 10:40pm 57 9 G 10 53° 48% - - 34° 63.2° 48.5° - - -
4/28 10:30pm 45 5 G 8 54° 45% - - 34° 63.2° 48.5° - - -
4/28 10:20pm 32 5 G 8 54° 46% - - 34° 63.2° 48.5° - - -
4/28 10:10pm 42 7 G 9 54° 48% - - 34° 63.2° 48.5° - - -
4/28 10:00pm 45 8 G 10 53° 48% - - 34° 63.2° 48.5° - - -
4/28 9:50pm 45 8 G 10 53° 48% - - 34° 63.2° 48.5° - - -
4/28 9:40pm 43 7 G 10 54° 47% - - 34° 63.2° 48.5° - - -
4/28 9:30pm 10 4 G 6 54° 46% - - 34° 63.2° 48.5° - - -
4/28 9:20pm 339 5 G 7 54° 45% - - 34° 63.2° 48.5° - - -
4/28 9:10pm 338 5 G 7 54° 45% - - 33° 63.2° 48.5° - - -
4/28 9:00pm 334 4 G 5 54° 45% - - 33° 63.2° 48.5° - - -
4/28 8:50pm 321 4 G 6 53° 47% - - 34° 63.2° 48.5° - - -
4/28 8:40pm 302 4 G 6 54° 48% - - 34° 63.2° 48.5° - - -
4/28 8:30pm 309 4 G 6 53° 50% - - 35° 63.2° 48.5° - - -
4/28 8:20pm 314 4 G 6 53° 54% - - 36° 63.2° 48.5° - - -
4/28 8:10pm 305 3 G 4 52° 56% - - 37° 63.2° 48.5° - - -
4/28 8:00pm 287 3 G 4 52° 57% - - 37° 63.2° 48.5° - - -
4/28 7:50pm 302 4 G 6 52° 55% - - 37° 63.2° 48.5° - - -
4/28 7:40pm 318 4 G 5 52° 55% - - 36° 63.2° 48.5° - - -
4/28 7:30pm 304 6 G 8 52° 56% - - 37° 63.2° 48.5° - - -
4/28 7:20pm 290 6 G 9 52° 56% - - 37° 63.2° 48.5° - - -
4/28 7:10pm 271 6 G 10 53° 55% - - 38° 63.2° 48.5° - - -
4/28 7:00pm 260 7 G 11 54° 56% - - 39° 63.2° 48.5° - - -
4/28 6:50pm 263 7 G 10 54° 58% - - 40° 63.2° 48.5° - - -
4/28 6:40pm 254 7 G 10 55° 58% - - 40° 63.2° 48.5° - - -
4/28 6:30pm 270 8 G 12 55° 58% - - 41° 63.2° 48.5° - - -
4/28 6:20pm 262 7 G 12 56° 59% - - 42° 63.2° 48.5° - - -
4/28 6:10pm 265 8 G 13 56° 59% - - 42° 63.2° 48.5° - - -
4/28 6:00pm 252 9 G 15 56° 59% - - 42° 63.2° 48.5° - - -